1VA5 weather

CLOSED Hoffman's Farm Airport
Severn, Virginia, United States

Public forecast

Using degrees Fahrenheit for public forecast. Weather courtesy of forecast.io.

Closest aviation weather report (METAR) to Hoffman's Farm Airport

Closest report is Newport News Williamsburg International Airport, 9.6 nm (17.8 km) SSW. Retrieved 2020/01/28 05:54 UTC (48 minutes ago):

KPHF 280554Z AUTO 36006KT 10SM OVC055 07/M02 A2984 RMK AO2 SLP105 T00671022 10078 20022 51009

Closest aviation forecast (TAF) to Hoffman's Farm Airport

Closest forecast is Newport News Williamsburg International Airport, 9.6 nm (17.8 km) SSW. Retrieved 2020/01/28 06:36 UTC (6 minutes ago):

TAF KPHF 280535Z 2806/2906 35007KT P6SM BKN060 FM280900 33010KT P6SM FEW060 FM282200 32005KT P6SM SCT060